createdAt,value
2017-07-27T00:02:47.780Z,14.30
2017-07-27T00:05:16.706Z,14.40
2017-07-27T00:07:45.668Z,14.40
2017-07-27T00:10:14.626Z,14.40
2017-07-27T00:12:43.602Z,14.40
2017-07-27T00:15:12.563Z,14.40
2017-07-27T00:17:41.474Z,14.40
2017-07-27T00:20:10.399Z,14.40
2017-07-27T00:22:39.352Z,14.50
2017-07-27T00:25:08.279Z,14.50
2017-07-27T00:27:37.219Z,14.50
2017-07-27T00:30:06.087Z,14.40
2017-07-27T00:32:35.023Z,14.50
2017-07-27T00:35:03.900Z,14.60
2017-07-27T00:37:32.780Z,14.70
2017-07-27T00:40:01.675Z,14.60
2017-07-27T00:42:30.687Z,14.60
2017-07-27T00:44:59.612Z,14.50
2017-07-27T00:47:28.537Z,14.50
2017-07-27T00:49:57.417Z,14.50
2017-07-27T00:53:45.692Z,14.50
2017-07-27T00:56:14.623Z,14.60
2017-07-27T00:58:43.619Z,14.60
2017-07-27T01:01:12.545Z,14.60
2017-07-27T01:03:41.469Z,14.60
2017-07-27T01:06:10.559Z,14.50
2017-07-27T01:08:39.525Z,14.50
2017-07-27T01:11:08.486Z,14.60
2017-07-27T01:13:37.367Z,14.50
2017-07-27T01:16:06.250Z,14.50
2017-07-27T01:18:35.409Z,14.50
2017-07-27T01:21:04.359Z,14.50
2017-07-27T01:23:33.282Z,14.60
2017-07-27T01:26:02.231Z,14.80
2017-07-27T01:28:31.212Z,15.00
2017-07-27T01:31:00.188Z,15.10
2017-07-27T01:33:29.226Z,15.10
2017-07-27T01:35:58.139Z,15.10
2017-07-27T01:38:27.027Z,15.10
2017-07-27T01:40:55.921Z,15.20
2017-07-27T01:43:24.855Z,15.20
2017-07-27T01:45:53.817Z,15.20
2017-07-27T01:48:22.763Z,15.20
2017-07-27T01:50:51.655Z,15.20
2017-07-27T01:53:20.587Z,15.10
2017-07-27T01:55:49.547Z,15.10
2017-07-27T01:58:18.519Z,15.10
2017-07-27T02:00:48.404Z,15.10
2017-07-27T02:04:19.802Z,15.00
2017-07-27T02:06:48.775Z,15.00
2017-07-27T02:09:17.674Z,15.00
2017-07-27T02:11:46.636Z,15.10
2017-07-27T02:14:15.664Z,15.00
2017-07-27T02:16:44.592Z,15.00
2017-07-27T02:19:13.545Z,15.00
2017-07-27T02:21:42.486Z,15.10
2017-07-27T02:24:11.387Z,15.00
2017-07-27T02:26:40.318Z,15.00
2017-07-27T02:31:47.252Z,15.00
2017-07-27T02:34:16.178Z,14.90
2017-07-27T02:36:45.064Z,15.00
2017-07-27T02:39:13.952Z,14.90
2017-07-27T02:41:42.866Z,14.90
2017-07-27T02:44:12.261Z,14.90
2017-07-27T02:46:41.456Z,14.80
2017-07-27T02:49:10.368Z,14.80
2017-07-27T02:51:39.299Z,14.80
2017-07-27T02:54:08.183Z,14.80
2017-07-27T02:56:37.119Z,14.70
2017-07-27T02:59:06.036Z,14.70
2017-07-27T03:01:34.922Z,14.70
2017-07-27T03:04:03.858Z,14.70
2017-07-27T03:06:32.755Z,14.70
2017-07-27T03:09:01.735Z,14.60
2017-07-27T03:11:30.655Z,14.60
2017-07-27T03:13:59.526Z,14.50
2017-07-27T03:16:28.480Z,14.50
2017-07-27T03:18:57.362Z,14.30
2017-07-27T03:21:26.299Z,14.30
2017-07-27T03:23:55.271Z,14.20
2017-07-27T03:26:24.194Z,14.20
2017-07-27T03:28:53.095Z,14.10
2017-07-27T03:31:21.982Z,14.10
2017-07-27T03:33:50.874Z,14.00
2017-07-27T03:36:19.833Z,14.00
2017-07-27T03:38:48.733Z,14.00
2017-07-27T03:41:17.670Z,14.00
2017-07-27T03:43:46.561Z,14.10
2017-07-27T03:46:15.459Z,14.10
2017-07-27T03:48:44.405Z,14.10
2017-07-27T03:51:13.385Z,14.10
2017-07-27T03:53:42.280Z,14.10
2017-07-27T03:56:11.227Z,14.20
2017-07-27T03:58:40.160Z,14.20
2017-07-27T04:01:09.071Z,14.30
2017-07-27T04:03:37.979Z,14.30
2017-07-27T04:06:06.903Z,14.40
2017-07-27T04:08:35.860Z,14.40
2017-07-27T04:11:04.780Z,14.40
2017-07-27T04:13:33.692Z,14.40
2017-07-27T04:16:02.579Z,14.40
2017-07-27T04:18:31.497Z,14.30
2017-07-27T04:21:00.495Z,14.30
2017-07-27T04:23:29.418Z,14.30
2017-07-27T04:25:58.332Z,14.30
2017-07-27T04:28:27.245Z,14.20
2017-07-27T04:30:56.147Z,14.20
2017-07-27T04:33:25.066Z,14.20
2017-07-27T04:35:54.011Z,14.20
2017-07-27T04:38:22.894Z,14.20
2017-07-27T04:40:51.824Z,14.20
2017-07-27T04:43:20.729Z,14.20
2017-07-27T04:45:49.620Z,14.20
2017-07-27T04:48:18.545Z,14.20
2017-07-27T04:50:47.500Z,14.30
2017-07-27T04:54:35.768Z,14.30
2017-07-27T04:57:13.453Z,14.40
2017-07-27T04:59:42.390Z,14.50
2017-07-27T05:02:11.351Z,14.50
2017-07-27T05:04:40.368Z,14.60
2017-07-27T05:07:09.346Z,14.60
2017-07-27T05:09:38.238Z,14.70
2017-07-27T05:12:07.130Z,14.70
2017-07-27T05:14:36.029Z,14.70
2017-07-27T05:17:04.948Z,14.70
2017-07-27T05:19:33.841Z,14.70
2017-07-27T05:22:02.776Z,14.70
2017-07-27T05:24:31.660Z,14.60
2017-07-27T05:27:00.612Z,14.60
2017-07-27T05:29:29.871Z,14.70
2017-07-27T05:31:58.759Z,14.70
2017-07-27T05:34:27.680Z,14.60
2017-07-27T05:36:56.583Z,14.60
2017-07-27T05:40:59.188Z,14.80
2017-07-27T05:43:28.072Z,14.80
2017-07-27T05:45:56.983Z,14.90
2017-07-27T05:48:25.944Z,14.90
2017-07-27T05:50:54.846Z,14.90
2017-07-27T05:53:23.768Z,15.00
2017-07-27T05:55:52.689Z,15.10
2017-07-27T05:58:21.629Z,15.20
2017-07-27T06:00:50.587Z,15.30
2017-07-27T06:03:19.577Z,15.40
2017-07-27T06:05:48.547Z,15.50
2017-07-27T06:08:17.427Z,15.50
2017-07-27T06:10:52.869Z,15.50
2017-07-27T06:13:21.835Z,15.60
2017-07-27T06:18:26.088Z,15.30
2017-07-27T06:20:55.027Z,15.40
2017-07-27T06:23:23.989Z,15.30
2017-07-27T06:25:52.887Z,15.30
2017-07-27T06:28:21.782Z,15.30
2017-07-27T06:30:50.711Z,15.40
2017-07-27T06:33:19.681Z,15.30
2017-07-27T06:35:48.645Z,15.30
2017-07-27T06:38:17.538Z,15.30
2017-07-27T06:40:46.496Z,15.30
2017-07-27T06:43:15.417Z,15.20
2017-07-27T06:45:44.357Z,15.10
2017-07-27T06:48:13.319Z,15.20
2017-07-27T06:50:42.333Z,15.30
2017-07-27T06:53:11.323Z,15.30
2017-07-27T06:55:40.274Z,15.50
2017-07-27T06:58:09.262Z,15.60
2017-07-27T07:00:38.167Z,15.60
2017-07-27T07:03:07.135Z,15.60
2017-07-27T07:05:36.036Z,15.70
2017-07-27T07:08:04.944Z,15.80
2017-07-27T07:10:33.864Z,15.90
2017-07-27T07:13:02.862Z,16.00
2017-07-27T07:15:31.864Z,16.00
2017-07-27T07:18:00.846Z,16.00
2017-07-27T07:20:29.847Z,16.10
2017-07-27T07:22:58.809Z,16.20
2017-07-27T07:25:27.868Z,16.30
2017-07-27T07:27:56.781Z,16.40
2017-07-27T07:30:25.751Z,16.40
2017-07-27T07:32:54.712Z,16.60
2017-07-27T07:35:23.739Z,16.50
2017-07-27T07:37:52.647Z,16.70
2017-07-27T07:40:21.591Z,16.60
2017-07-27T07:42:50.507Z,16.80
2017-07-27T07:45:19.490Z,16.90
2017-07-27T07:47:48.448Z,17.10
2017-07-27T07:50:19.509Z,17.40
2017-07-27T07:52:48.447Z,17.60
2017-07-27T07:55:17.368Z,17.80
2017-07-27T07:57:46.320Z,17.80
2017-07-27T08:00:15.309Z,17.60
2017-07-27T08:02:44.258Z,17.80
2017-07-27T08:05:13.215Z,19.00
2017-07-27T08:07:42.237Z,20.40
2017-07-27T08:10:26.600Z,21.80
2017-07-27T08:12:56.898Z,21.60
2017-07-27T08:15:25.789Z,21.50
2017-07-27T08:17:54.940Z,20.60
2017-07-27T08:20:23.909Z,19.90
2017-07-27T08:23:23.311Z,20.00
2017-07-27T08:25:52.225Z,20.00
2017-07-27T08:28:21.435Z,19.60
2017-07-27T08:32:09.661Z,19.30
2017-07-27T08:34:42.810Z,18.80
2017-07-27T08:37:15.610Z,18.20
2017-07-27T08:39:44.553Z,18.10
2017-07-27T08:42:13.587Z,17.80
2017-07-27T08:44:42.551Z,17.70
2017-07-27T08:47:11.589Z,17.50
2017-07-27T08:49:40.544Z,17.30
2017-07-27T08:52:09.626Z,17.40
2017-07-27T08:54:38.564Z,17.40
2017-07-27T08:57:07.514Z,17.50
2017-07-27T08:59:36.478Z,17.70
2017-07-27T09:02:05.381Z,17.80
2017-07-27T09:04:34.347Z,17.80
2017-07-27T09:07:03.281Z,18.00
2017-07-27T09:09:32.266Z,18.10
2017-07-27T09:12:01.269Z,18.30
2017-07-27T09:14:30.227Z,18.60
2017-07-27T09:16:59.211Z,18.80
2017-07-27T09:22:03.468Z,19.00
2017-07-27T09:24:32.388Z,19.00
2017-07-27T09:27:01.440Z,19.20
2017-07-27T09:29:30.424Z,19.40
2017-07-27T09:31:59.320Z,19.40
2017-07-27T09:34:28.265Z,19.50
2017-07-27T09:36:57.219Z,19.50
2017-07-27T09:39:26.166Z,19.60
2017-07-27T09:41:55.107Z,19.50
2017-07-27T09:44:24.072Z,19.30
2017-07-27T09:46:52.986Z,19.20
2017-07-27T09:49:22.020Z,19.00
2017-07-27T09:51:50.999Z,19.10
2017-07-27T09:54:20.012Z,19.20
2017-07-27T09:56:53.411Z,19.30
2017-07-27T09:59:22.383Z,19.40
2017-07-27T10:01:51.346Z,19.50
2017-07-27T10:04:20.303Z,19.70
2017-07-27T10:06:49.328Z,19.80
2017-07-27T10:09:18.322Z,20.10
2017-07-27T10:11:47.246Z,20.60
2017-07-27T10:14:16.171Z,21.00
2017-07-27T10:16:45.072Z,21.70
2017-07-27T10:19:14.014Z,21.80
2017-07-27T10:21:43.033Z,21.80
2017-07-27T10:24:12.026Z,21.80
2017-07-27T10:26:41.012Z,21.70
2017-07-27T10:30:12.673Z,22.40
2017-07-27T10:32:41.683Z,23.90
2017-07-27T10:35:10.636Z,26.10
2017-07-27T10:37:39.571Z,26.30
2017-07-27T10:40:08.566Z,26.70
2017-07-27T10:42:37.540Z,27.60
2017-07-27T10:45:06.737Z,27.10
2017-07-27T10:47:35.711Z,26.50
2017-07-27T10:50:04.612Z,25.80
2017-07-27T10:52:33.611Z,25.00
2017-07-27T10:55:02.552Z,23.90
2017-07-27T10:57:31.469Z,23.10
2017-07-27T11:00:00.499Z,22.30
2017-07-27T11:02:29.492Z,21.50
2017-07-27T11:04:58.522Z,21.20
2017-07-27T11:07:27.449Z,20.90
2017-07-27T11:09:56.382Z,20.60
2017-07-27T11:12:25.284Z,20.50
2017-07-27T11:14:54.277Z,20.60
2017-07-27T11:17:23.445Z,20.80
2017-07-27T11:19:52.417Z,20.80
2017-07-27T11:22:21.487Z,21.20
2017-07-27T11:24:58.678Z,21.50
2017-07-27T11:27:27.683Z,21.70
2017-07-27T11:29:56.635Z,22.20
2017-07-27T11:32:25.617Z,22.70
2017-07-27T11:34:54.573Z,23.20
2017-07-27T11:37:23.679Z,24.00
2017-07-27T11:39:52.629Z,25.10
2017-07-27T11:43:23.909Z,25.20
2017-07-27T11:45:52.849Z,24.60
2017-07-27T11:48:22.085Z,24.30
2017-07-27T11:50:51.095Z,24.30
2017-07-27T11:53:20.052Z,24.60
2017-07-27T11:55:49.024Z,24.50
2017-07-27T11:58:17.972Z,24.30
2017-07-27T12:00:46.958Z,24.30
2017-07-27T12:03:15.900Z,24.00
2017-07-27T12:05:44.902Z,23.50
2017-07-27T12:08:13.875Z,23.50
2017-07-27T12:10:42.859Z,23.60
2017-07-27T12:13:11.903Z,23.60
2017-07-27T12:15:40.888Z,23.00
2017-07-27T12:18:09.947Z,22.90
2017-07-27T12:20:38.944Z,22.70
2017-07-27T12:23:07.968Z,22.60
2017-07-27T12:25:36.928Z,22.60
2017-07-27T12:28:12.530Z,22.50
2017-07-27T12:30:41.522Z,22.60
2017-07-27T12:33:11.226Z,22.70
2017-07-27T12:35:40.566Z,22.70
2017-07-27T12:38:11.232Z,22.60
2017-07-27T12:43:15.421Z,22.10
2017-07-27T12:45:44.436Z,22.00
2017-07-27T12:48:13.390Z,21.90
2017-07-27T12:50:42.467Z,22.10
2017-07-27T12:53:11.460Z,22.10
2017-07-27T12:55:40.469Z,22.20
2017-07-27T12:58:39.901Z,22.30
2017-07-27T13:01:09.170Z,22.40
2017-07-27T13:03:38.206Z,22.40
2017-07-27T13:06:07.208Z,22.40
2017-07-27T13:08:36.188Z,22.20
2017-07-27T13:11:05.190Z,22.00
2017-07-27T13:13:34.214Z,22.00
2017-07-27T13:16:03.181Z,22.10
2017-07-27T13:18:32.185Z,22.30
2017-07-27T13:21:01.534Z,22.40
2017-07-27T13:23:30.579Z,22.40
2017-07-27T13:26:00.029Z,22.20
2017-07-27T13:28:29.445Z,22.00
2017-07-27T13:30:58.437Z,21.90
2017-07-27T13:33:27.403Z,21.70
2017-07-27T13:35:56.382Z,21.60
2017-07-27T13:38:25.415Z,21.30
2017-07-27T13:40:54.512Z,21.10
2017-07-27T13:43:23.631Z,21.10
2017-07-27T13:45:52.675Z,21.00
2017-07-27T13:48:21.670Z,20.80
2017-07-27T13:50:50.656Z,20.70
2017-07-27T13:53:19.628Z,20.60
2017-07-27T13:55:48.673Z,20.60
2017-07-27T13:58:17.707Z,20.70
2017-07-27T14:00:46.663Z,20.60
2017-07-27T14:03:15.686Z,20.50
2017-07-27T14:05:44.697Z,20.60
2017-07-27T14:08:14.068Z,20.40
2017-07-27T14:10:46.044Z,20.40
2017-07-27T14:13:15.027Z,20.40
2017-07-27T14:15:44.021Z,20.50
2017-07-27T14:18:13.055Z,20.70
2017-07-27T14:20:42.051Z,20.80
2017-07-27T14:23:11.168Z,20.80
2017-07-27T14:25:40.267Z,20.70
2017-07-27T14:28:09.249Z,20.90
2017-07-27T14:30:38.252Z,21.10
2017-07-27T14:33:07.237Z,21.40
2017-07-27T14:35:36.263Z,21.60
2017-07-27T14:38:05.166Z,21.80
2017-07-27T14:40:34.102Z,21.90
2017-07-27T14:43:03.058Z,21.70
2017-07-27T14:45:32.086Z,21.50
2017-07-27T14:48:01.146Z,21.40
2017-07-27T14:50:30.119Z,21.50
2017-07-27T14:52:59.083Z,21.60
2017-07-27T14:55:28.272Z,21.30
2017-07-27T14:57:57.174Z,21.20
2017-07-27T15:00:26.136Z,21.00
2017-07-27T15:02:55.085Z,20.80
2017-07-27T15:05:24.092Z,20.80
2017-07-27T15:07:53.116Z,20.70
2017-07-27T15:10:22.160Z,20.70
2017-07-27T15:12:51.194Z,20.60
2017-07-27T15:15:20.143Z,20.70
2017-07-27T15:17:49.050Z,20.70
2017-07-27T15:20:19.428Z,20.70
2017-07-27T15:22:48.396Z,20.70
2017-07-27T15:25:17.776Z,20.60
2017-07-27T15:27:46.743Z,20.40
2017-07-27T15:30:15.748Z,20.30
2017-07-27T15:32:44.799Z,20.30
2017-07-27T15:35:13.796Z,20.20
2017-07-27T15:37:42.792Z,20.10
2017-07-27T15:40:12.743Z,20.00
2017-07-27T15:42:41.700Z,20.00
2017-07-27T15:45:10.640Z,20.10
2017-07-27T15:47:39.570Z,20.20
2017-07-27T15:50:08.637Z,20.30
2017-07-27T15:52:37.600Z,20.30
2017-07-27T15:55:06.796Z,20.20
2017-07-27T15:57:35.701Z,20.20
2017-07-27T16:00:04.702Z,20.10
2017-07-27T16:02:33.690Z,20.10
2017-07-27T16:05:02.696Z,20.20
2017-07-27T16:07:31.679Z,20.20
2017-07-27T16:10:00.797Z,20.20
2017-07-27T16:12:29.685Z,20.10
2017-07-27T16:14:58.664Z,19.90
2017-07-27T16:17:27.602Z,19.80
2017-07-27T16:19:56.597Z,19.60
2017-07-27T16:22:25.689Z,19.50
2017-07-27T16:24:54.663Z,19.40
2017-07-27T16:27:23.666Z,19.50
2017-07-27T16:29:52.673Z,19.60
2017-07-27T16:32:21.668Z,19.70
2017-07-27T16:34:50.655Z,19.90
2017-07-27T16:37:19.642Z,19.80
2017-07-27T16:39:48.736Z,19.70
2017-07-27T16:42:17.699Z,19.60
2017-07-27T16:44:46.675Z,19.60
2017-07-27T16:47:15.697Z,19.70
2017-07-27T16:49:44.641Z,19.70
2017-07-27T16:54:32.098Z,19.70
2017-07-27T16:57:01.353Z,19.60
2017-07-27T16:59:30.445Z,19.70
2017-07-27T17:02:00.817Z,20.00
2017-07-27T17:04:30.148Z,20.00
2017-07-27T17:06:59.567Z,20.10
2017-07-27T17:09:28.551Z,20.10
2017-07-27T17:11:57.531Z,20.10
2017-07-27T17:14:27.047Z,20.10
2017-07-27T17:16:56.189Z,20.20
2017-07-27T17:19:25.193Z,20.20
2017-07-27T17:21:54.544Z,20.10
2017-07-27T17:24:23.571Z,20.10
2017-07-27T17:26:52.873Z,20.20
2017-07-27T17:29:22.054Z,20.30
2017-07-27T17:31:51.095Z,20.30
2017-07-27T17:34:20.061Z,20.30
2017-07-27T17:36:49.055Z,20.20
2017-07-27T17:39:18.148Z,20.20
2017-07-27T17:41:47.232Z,20.10
2017-07-27T17:44:16.257Z,20.00
2017-07-27T17:46:45.414Z,20.00
2017-07-27T17:49:14.387Z,19.90
2017-07-27T17:51:43.371Z,19.80
2017-07-27T17:54:14.088Z,19.80
2017-07-27T17:56:43.352Z,19.70
2017-07-27T17:59:12.560Z,19.50
2017-07-27T18:01:41.641Z,19.50
2017-07-27T18:04:10.666Z,19.40
2017-07-27T18:06:40.089Z,19.30
2017-07-27T18:09:09.048Z,19.20
2017-07-27T18:11:38.276Z,19.20
2017-07-27T18:14:07.269Z,19.00
2017-07-27T18:16:36.224Z,18.80
2017-07-27T18:19:05.938Z,18.70
2017-07-27T18:21:35.068Z,18.70
2017-07-27T18:24:04.218Z,18.70
2017-07-27T18:26:33.215Z,18.70
2017-07-27T18:29:02.196Z,18.70
2017-07-27T18:31:31.144Z,18.60
2017-07-27T18:34:00.196Z,18.60
2017-07-27T18:36:29.179Z,18.50
2017-07-27T18:38:58.120Z,18.50
2017-07-27T18:41:27.064Z,18.50
2017-07-27T18:43:56.151Z,18.50
2017-07-27T18:46:25.139Z,18.40
2017-07-27T18:48:54.107Z,18.30
2017-07-27T18:51:23.159Z,18.20
2017-07-27T18:53:52.122Z,18.20
2017-07-27T18:56:21.071Z,18.20
2017-07-27T18:58:49.999Z,18.10
2017-07-27T19:01:19.004Z,18.10
2017-07-27T19:03:47.999Z,18.10
2017-07-27T19:06:47.391Z,18.10
2017-07-27T19:09:16.482Z,18.20
2017-07-27T19:11:45.451Z,18.20
2017-07-27T19:14:14.444Z,18.10
2017-07-27T19:16:43.400Z,18.00
2017-07-27T19:19:12.359Z,18.10
2017-07-27T19:21:41.455Z,18.00
2017-07-27T19:24:10.670Z,18.10
2017-07-27T19:26:39.620Z,18.00
2017-07-27T19:29:08.590Z,18.00
2017-07-27T19:31:37.630Z,17.90
2017-07-27T19:34:06.631Z,17.90
2017-07-27T19:36:35.599Z,17.90
2017-07-27T19:39:04.717Z,17.90
2017-07-27T19:41:33.789Z,17.80
2017-07-27T19:44:02.944Z,17.70
2017-07-27T19:46:32.091Z,17.50
2017-07-27T19:49:01.003Z,17.50
2017-07-27T19:51:29.984Z,17.60
2017-07-27T19:53:58.979Z,17.70
2017-07-27T19:56:27.930Z,17.70
2017-07-27T19:58:56.906Z,17.70
2017-07-27T20:01:26.023Z,17.70
2017-07-27T20:03:54.982Z,17.70
2017-07-27T20:06:23.973Z,17.60
2017-07-27T20:08:53.008Z,17.60
2017-07-27T20:11:21.939Z,17.60
2017-07-27T20:13:50.865Z,17.60
2017-07-27T20:16:19.811Z,17.40
2017-07-27T20:18:48.824Z,17.20
2017-07-27T20:21:17.828Z,17.20
2017-07-27T20:23:46.819Z,17.20
2017-07-27T20:26:15.778Z,17.10
2017-07-27T20:28:44.722Z,17.10
2017-07-27T20:31:13.639Z,17.00
2017-07-27T20:33:42.555Z,16.90
2017-07-27T20:36:11.547Z,16.70
2017-07-27T20:38:40.528Z,16.70
2017-07-27T20:41:09.471Z,16.70
2017-07-27T20:43:38.440Z,16.70
2017-07-27T20:46:07.390Z,16.60
2017-07-27T20:48:36.313Z,16.40
2017-07-27T20:51:05.255Z,16.40
2017-07-27T20:53:34.151Z,16.40
2017-07-27T20:56:03.119Z,16.30
2017-07-27T20:58:32.130Z,16.30
2017-07-27T21:01:01.046Z,16.20
2017-07-27T21:03:30.024Z,16.20
2017-07-27T21:05:58.955Z,16.10
2017-07-27T21:08:27.905Z,16.20
2017-07-27T21:10:56.831Z,16.20
2017-07-27T21:13:25.810Z,16.10
2017-07-27T21:15:56.854Z,16.10
2017-07-27T21:18:25.844Z,16.00
2017-07-27T21:20:54.972Z,16.00
2017-07-27T21:23:23.976Z,15.90
2017-07-27T21:25:52.907Z,15.90
2017-07-27T21:28:21.887Z,15.80
2017-07-27T21:30:50.871Z,15.70
2017-07-27T21:33:19.804Z,15.70
2017-07-27T21:35:48.735Z,15.60
2017-07-27T21:38:17.667Z,15.60
2017-07-27T21:40:46.590Z,15.60
2017-07-27T21:43:15.670Z,15.80
2017-07-27T21:45:44.584Z,15.90
2017-07-27T21:48:13.557Z,16.00
2017-07-27T21:50:42.478Z,16.00
2017-07-27T21:53:11.359Z,16.00
2017-07-27T21:55:40.612Z,16.00
2017-07-27T21:58:09.546Z,16.10
2017-07-27T22:00:38.466Z,16.10
2017-07-27T22:03:07.423Z,16.10
2017-07-27T22:05:36.354Z,16.10
2017-07-27T22:08:05.288Z,16.10
2017-07-27T22:10:37.102Z,16.00
2017-07-27T22:13:06.019Z,16.10
2017-07-27T22:15:34.951Z,16.00
2017-07-27T22:18:03.883Z,16.00
2017-07-27T22:20:32.783Z,15.90
2017-07-27T22:23:01.735Z,15.90
2017-07-27T22:25:30.619Z,15.90
2017-07-27T22:27:59.505Z,16.00
2017-07-27T22:30:28.390Z,16.10
2017-07-27T22:34:00.350Z,16.00
2017-07-27T22:36:29.296Z,16.10
2017-07-27T22:38:58.291Z,16.00
2017-07-27T22:41:27.195Z,16.00
2017-07-27T22:46:21.502Z,16.00
2017-07-27T22:48:50.458Z,16.00
2017-07-27T22:51:19.368Z,16.00
2017-07-27T22:53:48.252Z,16.10
2017-07-27T22:56:17.126Z,16.00
2017-07-27T22:58:46.069Z,16.00
2017-07-27T23:01:14.935Z,15.90
2017-07-27T23:03:43.812Z,16.00
2017-07-27T23:06:12.856Z,16.00
2017-07-27T23:08:41.768Z,16.00
2017-07-27T23:11:10.699Z,16.00
2017-07-27T23:13:39.651Z,16.00
2017-07-27T23:16:08.524Z,16.00
2017-07-27T23:18:37.406Z,16.00
2017-07-27T23:21:06.292Z,16.00
2017-07-27T23:23:35.122Z,16.10
2017-07-27T23:26:03.984Z,16.10
2017-07-27T23:28:32.884Z,16.00
2017-07-27T23:31:01.775Z,16.00
2017-07-27T23:33:30.656Z,16.00
2017-07-27T23:35:59.599Z,16.00
2017-07-27T23:38:28.467Z,16.00
2017-07-27T23:40:57.423Z,16.00
2017-07-27T23:43:26.387Z,16.00
2017-07-27T23:45:55.322Z,16.00
2017-07-27T23:48:24.258Z,15.90
2017-07-27T23:50:53.161Z,15.90
2017-07-27T23:53:22.085Z,15.90
2017-07-27T23:55:50.999Z,15.90
2017-07-27T23:58:19.961Z,15.80
